createdAt,value
2023-03-03T00:02:29.154Z,1.30
2023-03-03T00:05:08.532Z,1.20
2023-03-03T00:07:46.672Z,1.20
2023-03-03T00:10:35.593Z,1.10
2023-03-03T00:13:19.229Z,1.10
2023-03-03T00:15:50.019Z,1.10
2023-03-03T00:18:33.150Z,1.00
2023-03-03T00:21:12.827Z,1.00
2023-03-03T00:23:47.672Z,1.00
2023-03-03T00:26:26.131Z,1.10
2023-03-03T00:29:05.471Z,1.00
2023-03-03T00:31:40.871Z,1.00
2023-03-03T00:34:25.034Z,1.00
2023-03-03T00:37:02.570Z,1.00
2023-03-03T00:39:40.875Z,1.00
2023-03-03T00:42:16.812Z,0.90
2023-03-03T00:45:00.560Z,0.90
2023-03-03T00:47:39.365Z,0.80
2023-03-03T00:50:15.368Z,0.80
2023-03-03T00:52:55.171Z,0.80
2023-03-03T00:55:30.372Z,0.80
2023-03-03T00:58:07.699Z,0.80
2023-03-03T01:00:50.926Z,0.80
2023-03-03T01:03:29.249Z,0.80
2023-03-03T01:06:04.361Z,0.90
2023-03-03T01:08:42.322Z,0.90
2023-03-03T01:11:19.381Z,0.90
2023-03-03T01:13:54.209Z,0.90
2023-03-03T01:16:33.288Z,0.90
2023-03-03T01:19:10.086Z,0.90
2023-03-03T01:21:45.516Z,0.90
2023-03-03T01:24:21.273Z,1.00
2023-03-03T01:26:59.016Z,1.00
2023-03-03T01:29:34.275Z,1.00
2023-03-03T01:32:13.422Z,1.00
2023-03-03T01:34:50.658Z,0.80
2023-03-03T01:37:25.888Z,0.90
2023-03-03T01:40:02.313Z,0.90
2023-03-03T01:42:41.101Z,0.90
2023-03-03T01:45:23.219Z,1.00
2023-03-03T01:48:03.094Z,1.10
2023-03-03T01:50:44.408Z,1.00
2023-03-03T01:53:25.014Z,0.90
2023-03-03T01:58:29.989Z,1.00
2023-03-03T02:01:08.548Z,1.00
2023-03-03T02:03:46.457Z,1.00
2023-03-03T02:06:24.392Z,0.90
2023-03-03T02:09:02.912Z,0.90
2023-03-03T02:11:40.163Z,0.90
2023-03-03T02:14:18.370Z,0.90
2023-03-03T02:16:54.133Z,0.90
2023-03-03T02:19:36.319Z,0.90
2023-03-03T02:22:12.115Z,0.90
2023-03-03T02:24:48.397Z,0.90
2023-03-03T02:27:27.282Z,0.90
2023-03-03T02:30:12.784Z,0.90
2023-03-03T02:32:47.077Z,0.80
2023-03-03T02:35:32.218Z,0.80
2023-03-03T02:38:13.920Z,0.90
2023-03-03T02:40:53.287Z,0.90
2023-03-03T02:43:33.569Z,0.80
2023-03-03T02:46:08.513Z,0.80
2023-03-03T02:48:43.686Z,0.90
2023-03-03T02:51:22.225Z,0.80
2023-03-03T02:53:58.668Z,0.80
2023-03-03T02:56:36.992Z,0.80
2023-03-03T02:59:15.776Z,0.70
2023-03-03T03:01:56.384Z,0.70
2023-03-03T03:04:32.195Z,0.70
2023-03-03T03:07:09.914Z,0.60
2023-03-03T03:09:44.908Z,0.60
2023-03-03T03:12:21.951Z,0.60
2023-03-03T03:15:06.318Z,0.60
2023-03-03T03:17:45.529Z,0.70
2023-03-03T03:20:20.129Z,0.60
2023-03-03T03:23:00.601Z,0.60
2023-03-03T03:25:36.129Z,0.60
2023-03-03T03:28:16.451Z,0.60
2023-03-03T03:30:55.204Z,0.50
2023-03-03T03:33:31.754Z,0.60
2023-03-03T03:36:07.121Z,0.50
2023-03-03T03:38:46.482Z,0.50
2023-03-03T03:41:20.188Z,0.60
2023-03-03T03:43:58.044Z,0.50
2023-03-03T03:46:39.420Z,0.50
2023-03-03T03:49:20.931Z,0.50
2023-03-03T03:51:58.423Z,0.50
2023-03-03T03:54:39.182Z,0.40
2023-03-03T03:57:16.853Z,0.50
2023-03-03T03:59:53.794Z,0.40
2023-03-03T04:02:32.288Z,0.40
2023-03-03T04:05:07.652Z,0.30
2023-03-03T04:07:43.257Z,0.30
2023-03-03T04:10:21.279Z,0.40
2023-03-03T04:12:57.380Z,0.40
2023-03-03T04:15:33.452Z,0.30
2023-03-03T04:18:16.635Z,0.30
2023-03-03T04:20:54.957Z,0.20
2023-03-03T04:23:33.424Z,0.30
2023-03-03T04:26:10.911Z,0.20
2023-03-03T04:28:47.492Z,0.20
2023-03-03T04:31:24.024Z,0.20
2023-03-03T04:34:02.715Z,0.20
2023-03-03T04:36:38.767Z,0.20
2023-03-03T04:39:14.220Z,0.30
2023-03-03T04:41:54.986Z,0.20
2023-03-03T04:44:29.471Z,0.30
2023-03-03T04:47:07.392Z,0.30
2023-03-03T04:49:45.635Z,0.30
2023-03-03T04:52:22.143Z,0.20
2023-03-03T04:55:00.373Z,0.20
2023-03-03T04:57:35.736Z,0.30
2023-03-03T05:00:18.864Z,0.30
2023-03-03T05:02:53.984Z,0.20
2023-03-03T05:05:31.814Z,0.20
2023-03-03T05:08:07.388Z,0.20
2023-03-03T05:10:46.322Z,0.10
2023-03-03T05:13:24.255Z,0.10
2023-03-03T05:16:00.147Z,0.10
2023-03-03T05:18:35.421Z,0.10
2023-03-03T05:21:13.356Z,0.10
2023-03-03T05:23:49.217Z,0.10
2023-03-03T05:26:25.473Z,0.10
2023-03-03T05:29:03.196Z,0.00
2023-03-03T05:31:45.555Z,-0.10
2023-03-03T05:34:21.957Z,0.00
2023-03-03T05:37:00.634Z,0.00
2023-03-03T05:39:39.167Z,0.00
2023-03-03T05:42:17.815Z,0.00
2023-03-03T05:44:55.182Z,-0.10
2023-03-03T05:47:31.003Z,-0.10
2023-03-03T05:50:08.703Z,-0.10
2023-03-03T05:52:51.307Z,-0.10
2023-03-03T05:55:29.273Z,-0.10
2023-03-03T05:58:08.091Z,-0.10
2023-03-03T06:00:46.820Z,0.00
2023-03-03T06:03:22.042Z,0.00
2023-03-03T06:05:59.157Z,0.00
2023-03-03T06:08:37.996Z,0.00
2023-03-03T06:11:13.963Z,0.00
2023-03-03T06:13:52.437Z,0.00
2023-03-03T06:16:28.165Z,0.10
2023-03-03T06:19:04.531Z,0.10
2023-03-03T06:21:42.625Z,0.10
2023-03-03T06:24:21.970Z,0.10
2023-03-03T06:27:01.142Z,0.10
2023-03-03T06:29:35.066Z,0.10
2023-03-03T06:32:10.566Z,0.10
2023-03-03T06:34:50.339Z,0.10
2023-03-03T06:37:25.969Z,0.10
2023-03-03T06:40:07.396Z,0.10
2023-03-03T06:42:46.876Z,0.10
2023-03-03T06:45:22.475Z,0.10
2023-03-03T06:47:59.662Z,0.10
2023-03-03T06:50:36.698Z,0.00
2023-03-03T06:53:14.876Z,-0.10
2023-03-03T06:55:49.217Z,-0.10
2023-03-03T06:58:27.906Z,0.00
2023-03-03T07:01:04.911Z,-0.10
2023-03-03T07:03:42.594Z,0.00
2023-03-03T07:06:23.184Z,-0.10
2023-03-03T07:09:01.318Z,-0.10
2023-03-03T07:11:42.430Z,-0.10
2023-03-03T07:14:22.909Z,-0.20
2023-03-03T07:17:02.101Z,-0.20
2023-03-03T07:19:41.842Z,-0.20
2023-03-03T07:22:16.692Z,-0.20
2023-03-03T07:24:53.342Z,-0.20
2023-03-03T07:27:29.299Z,-0.20
2023-03-03T07:30:21.287Z,-0.20
2023-03-03T07:32:57.756Z,-0.10
2023-03-03T07:35:41.949Z,-0.10
2023-03-03T07:38:38.956Z,-0.10
2023-03-03T07:41:17.345Z,-0.10
2023-03-03T07:43:55.371Z,0.00
2023-03-03T07:46:34.375Z,0.00
2023-03-03T07:49:20.858Z,0.00
2023-03-03T07:51:57.977Z,0.10
2023-03-03T07:54:40.701Z,0.10
2023-03-03T07:57:19.345Z,0.10
2023-03-03T07:59:57.029Z,0.10
2023-03-03T08:02:46.985Z,0.10
2023-03-03T08:05:34.423Z,0.10
2023-03-03T08:08:34.766Z,0.10
2023-03-03T08:11:32.783Z,0.10
2023-03-03T08:14:12.981Z,0.10
2023-03-03T08:16:48.732Z,0.10
2023-03-03T08:19:20.377Z,0.10
2023-03-03T08:22:05.574Z,0.10
2023-03-03T08:24:46.667Z,0.10
2023-03-03T08:27:24.520Z,0.10
2023-03-03T08:30:03.172Z,0.20
2023-03-03T08:32:40.827Z,0.10
2023-03-03T08:35:19.257Z,0.10
2023-03-03T08:37:59.087Z,0.10
2023-03-03T08:40:35.550Z,0.10
2023-03-03T08:43:14.851Z,0.10
2023-03-03T08:45:52.789Z,0.00
2023-03-03T08:48:29.045Z,0.10
2023-03-03T08:51:08.722Z,0.10
2023-03-03T08:53:45.964Z,0.10
2023-03-03T08:56:24.422Z,0.20
2023-03-03T08:59:03.671Z,0.20
2023-03-03T09:01:40.807Z,0.20
2023-03-03T09:04:18.255Z,0.30
2023-03-03T09:06:55.372Z,0.20
2023-03-03T09:09:38.028Z,0.30
2023-03-03T09:12:12.919Z,0.30
2023-03-03T09:14:50.170Z,0.30
2023-03-03T09:17:30.126Z,0.30
2023-03-03T09:20:21.691Z,0.40
2023-03-03T09:22:57.825Z,0.40
2023-03-03T09:25:39.759Z,0.40
2023-03-03T09:28:24.661Z,0.50
2023-03-03T09:31:05.272Z,0.50
2023-03-03T09:33:40.260Z,0.50
2023-03-03T09:36:23.568Z,0.40
2023-03-03T09:39:02.506Z,0.50
2023-03-03T09:42:12.631Z,0.50
2023-03-03T09:45:22.065Z,0.50
2023-03-03T09:47:56.525Z,0.60
2023-03-03T09:50:40.087Z,0.60
2023-03-03T09:53:23.074Z,0.60
2023-03-03T09:56:02.549Z,0.60
2023-03-03T09:58:58.761Z,0.60
2023-03-03T10:01:43.471Z,0.70
2023-03-03T10:04:17.974Z,0.70
2023-03-03T10:06:58.914Z,0.60
2023-03-03T10:09:47.823Z,0.70
2023-03-03T10:12:26.069Z,0.70
2023-03-03T10:15:01.570Z,0.80
2023-03-03T10:17:45.328Z,0.90
2023-03-03T10:20:29.505Z,0.90
2023-03-03T10:29:38.645Z,1.00
2023-03-03T10:32:39.365Z,1.00
2023-03-03T10:35:29.160Z,1.10
2023-03-03T10:38:03.270Z,1.10
2023-03-03T10:40:40.084Z,1.10
2023-03-03T10:43:44.913Z,1.10
2023-03-03T10:46:39.378Z,1.10
2023-03-03T10:49:26.977Z,1.10
2023-03-03T10:52:34.329Z,1.10
2023-03-03T10:55:30.222Z,1.10
2023-03-03T11:00:40.733Z,1.10
2023-03-03T11:03:38.114Z,1.10
2023-03-03T11:06:20.275Z,1.10
2023-03-03T11:09:04.869Z,1.10
2023-03-03T11:11:44.178Z,1.10
2023-03-03T11:14:25.466Z,1.10
2023-03-03T11:17:01.566Z,1.20
2023-03-03T11:19:53.566Z,1.20
2023-03-03T11:22:39.396Z,1.20
2023-03-03T11:25:21.849Z,1.30
2023-03-03T11:28:12.461Z,1.30
2023-03-03T11:30:46.655Z,1.40
2023-03-03T11:33:25.162Z,1.40
2023-03-03T11:36:09.399Z,1.40
2023-03-03T11:39:00.952Z,1.50
2023-03-03T11:41:44.410Z,1.50
2023-03-03T11:44:34.135Z,1.60
2023-03-03T11:47:14.348Z,1.60
2023-03-03T11:50:03.746Z,1.60
2023-03-03T11:52:48.060Z,1.60
2023-03-03T11:55:34.218Z,1.60
2023-03-03T12:01:17.054Z,1.60
2023-03-03T12:04:01.596Z,1.60
2023-03-03T12:09:51.113Z,1.60
2023-03-03T12:12:33.799Z,1.60
2023-03-03T12:15:20.345Z,1.70
2023-03-03T12:18:37.555Z,1.70
2023-03-03T12:24:50.516Z,1.80
2023-03-03T12:27:37.979Z,1.80
2023-03-03T12:33:32.223Z,1.90
2023-03-03T12:39:35.453Z,1.90
2023-03-03T12:42:15.620Z,2.00
2023-03-03T12:44:50.776Z,2.00
2023-03-03T12:47:32.044Z,2.00
2023-03-03T12:50:20.301Z,2.00
2023-03-03T12:52:58.077Z,2.00
2023-03-03T12:55:39.961Z,2.00
2023-03-03T12:58:20.971Z,2.00
2023-03-03T13:01:03.927Z,2.10
2023-03-03T13:03:55.284Z,2.10
2023-03-03T13:06:32.293Z,2.10
2023-03-03T13:09:21.254Z,2.10
2023-03-03T13:12:04.355Z,2.10
2023-03-03T13:14:41.824Z,2.10
2023-03-03T13:17:22.232Z,2.10
2023-03-03T13:20:03.976Z,2.00
2023-03-03T13:22:48.197Z,2.00
2023-03-03T13:25:48.083Z,2.00
2023-03-03T13:28:29.516Z,2.10
2023-03-03T13:31:07.088Z,2.00
2023-03-03T13:33:44.324Z,2.10
2023-03-03T13:36:26.629Z,2.10
2023-03-03T13:39:07.595Z,2.20
2023-03-03T13:41:42.111Z,2.20
2023-03-03T13:44:23.392Z,2.20
2023-03-03T13:47:05.973Z,2.20
2023-03-03T13:49:48.244Z,2.30
2023-03-03T13:52:27.979Z,2.20
2023-03-03T13:55:29.717Z,2.30
2023-03-03T13:58:01.366Z,2.30
2023-03-03T14:00:46.678Z,2.20
2023-03-03T14:03:45.111Z,2.20
2023-03-03T14:06:21.326Z,2.30
2023-03-03T14:09:24.118Z,2.20
2023-03-03T14:12:04.119Z,2.20
2023-03-03T14:14:49.731Z,2.20
2023-03-03T14:17:31.318Z,2.20
2023-03-03T14:20:18.765Z,2.20
2023-03-03T14:22:57.697Z,2.20
2023-03-03T14:25:53.005Z,2.20
2023-03-03T14:28:30.016Z,2.10
2023-03-03T14:31:11.273Z,2.20
2023-03-03T14:33:47.839Z,2.20
2023-03-03T14:36:22.561Z,2.20
2023-03-03T14:39:00.152Z,2.20
2023-03-03T14:41:45.870Z,2.20
2023-03-03T14:44:28.956Z,2.20
2023-03-03T14:47:03.380Z,2.20
2023-03-03T14:49:40.673Z,2.10
2023-03-03T14:52:27.537Z,2.10
2023-03-03T14:55:05.472Z,2.10
2023-03-03T14:57:51.622Z,2.10
2023-03-03T15:00:36.690Z,2.10
2023-03-03T15:03:12.072Z,2.10
2023-03-03T15:05:53.268Z,2.20
2023-03-03T15:08:35.051Z,2.20
2023-03-03T15:11:17.883Z,2.10
2023-03-03T15:13:59.324Z,2.10
2023-03-03T15:16:40.368Z,2.00
2023-03-03T15:19:35.436Z,2.00
2023-03-03T15:22:16.307Z,2.00
2023-03-03T15:24:55.812Z,2.00
2023-03-03T15:27:34.563Z,2.00
2023-03-03T15:30:19.461Z,1.90
2023-03-03T15:33:00.458Z,1.90
2023-03-03T15:35:43.969Z,1.90
2023-03-03T15:38:18.594Z,1.90
2023-03-03T15:41:00.293Z,1.80
2023-03-03T15:43:40.101Z,1.80
2023-03-03T15:46:27.404Z,1.80
2023-03-03T15:49:08.444Z,1.70
2023-03-03T15:52:04.394Z,1.70
2023-03-03T15:54:46.696Z,1.70
2023-03-03T15:57:26.251Z,1.70
2023-03-03T16:00:01.014Z,1.60
2023-03-03T16:02:47.296Z,1.60
2023-03-03T16:05:27.030Z,1.60
2023-03-03T16:08:09.188Z,1.50
2023-03-03T16:10:53.720Z,1.50
2023-03-03T16:13:46.130Z,1.50
2023-03-03T16:16:30.054Z,1.50
2023-03-03T16:19:15.414Z,1.50
2023-03-03T16:22:33.960Z,1.50
2023-03-03T16:25:35.370Z,1.50
2023-03-03T16:28:14.722Z,1.50
2023-03-03T16:30:54.632Z,1.50
2023-03-03T16:33:35.727Z,1.60
2023-03-03T16:36:16.585Z,1.60
2023-03-03T16:38:56.038Z,1.60
2023-03-03T16:41:34.180Z,2.10
2023-03-03T16:44:16.199Z,2.30
2023-03-03T16:46:52.405Z,2.30
2023-03-03T16:49:28.755Z,2.20
2023-03-03T16:52:01.460Z,2.10
2023-03-03T16:54:43.236Z,2.00
2023-03-03T16:57:22.486Z,1.90
2023-03-03T17:00:04.049Z,1.80
2023-03-03T17:03:21.993Z,1.70
2023-03-03T17:05:58.353Z,1.60
2023-03-03T17:09:01.368Z,1.60
2023-03-03T17:11:46.404Z,1.60
2023-03-03T17:14:38.899Z,1.50
2023-03-03T17:17:12.584Z,1.50
2023-03-03T17:19:57.547Z,1.50
2023-03-03T17:22:31.139Z,1.40
2023-03-03T17:25:09.322Z,1.40
2023-03-03T17:27:54.213Z,1.40
2023-03-03T17:30:33.817Z,1.30
2023-03-03T17:33:35.859Z,1.30
2023-03-03T17:36:29.646Z,1.20
2023-03-03T17:39:13.624Z,1.30
2023-03-03T17:41:47.684Z,1.20
2023-03-03T17:44:28.715Z,1.20
2023-03-03T17:47:10.841Z,1.10
2023-03-03T17:50:10.722Z,1.10
2023-03-03T17:52:59.269Z,1.10
2023-03-03T17:56:03.977Z,1.10
2023-03-03T17:59:07.540Z,1.00
2023-03-03T18:01:53.802Z,1.00
2023-03-03T18:04:34.229Z,1.00
2023-03-03T18:07:23.352Z,1.00
2023-03-03T18:10:44.394Z,0.90
2023-03-03T18:13:26.110Z,0.90
2023-03-03T18:16:11.906Z,0.90
2023-03-03T18:19:07.311Z,0.90
2023-03-03T18:21:47.486Z,0.90
2023-03-03T18:24:42.868Z,0.90
2023-03-03T18:27:34.865Z,0.90
2023-03-03T18:30:32.140Z,1.00
2023-03-03T18:33:14.069Z,1.00
2023-03-03T18:36:17.510Z,1.00
2023-03-03T18:38:56.817Z,1.00
2023-03-03T18:41:35.970Z,1.00
2023-03-03T18:44:32.765Z,1.00
2023-03-03T18:47:11.707Z,1.00
2023-03-03T18:50:02.677Z,1.00
2023-03-03T18:52:43.636Z,0.90
2023-03-03T18:55:30.058Z,0.90
2023-03-03T18:58:46.458Z,0.90
2023-03-03T19:01:44.492Z,1.00
2023-03-03T19:04:25.038Z,1.00
2023-03-03T19:07:25.210Z,1.00
2023-03-03T19:10:01.920Z,1.00
2023-03-03T19:13:15.322Z,0.90
2023-03-03T19:18:27.272Z,0.90
2023-03-03T19:21:07.275Z,0.90
2023-03-03T19:24:00.321Z,0.90
2023-03-03T19:27:04.079Z,0.90
2023-03-03T19:30:04.396Z,0.90
2023-03-03T19:33:19.398Z,1.00
2023-03-03T19:35:54.794Z,1.00
2023-03-03T19:38:38.033Z,0.90
2023-03-03T19:41:26.934Z,0.90
2023-03-03T19:44:08.810Z,0.90
2023-03-03T19:47:03.721Z,0.90
2023-03-03T19:49:39.413Z,0.90
2023-03-03T19:52:19.717Z,0.90
2023-03-03T19:55:01.567Z,0.90
2023-03-03T19:57:43.454Z,0.90
2023-03-03T20:00:23.935Z,1.00
2023-03-03T20:03:17.510Z,0.90
2023-03-03T20:05:59.605Z,0.90
2023-03-03T20:08:34.906Z,0.90
2023-03-03T20:11:14.176Z,0.90
2023-03-03T20:13:57.420Z,0.80
2023-03-03T20:16:45.638Z,0.80
2023-03-03T20:19:32.924Z,0.70
2023-03-03T20:22:08.645Z,0.70
2023-03-03T20:24:54.323Z,0.70
2023-03-03T20:27:37.032Z,0.70
2023-03-03T20:30:32.016Z,0.70
2023-03-03T20:33:22.203Z,0.60
2023-03-03T20:36:08.841Z,0.60
2023-03-03T20:38:53.382Z,0.60
2023-03-03T20:41:36.516Z,0.80
2023-03-03T20:44:17.071Z,0.70
2023-03-03T20:46:58.354Z,0.70
2023-03-03T20:49:42.636Z,0.70
2023-03-03T20:52:23.824Z,0.70
2023-03-03T20:55:03.886Z,0.70
2023-03-03T20:57:44.138Z,0.70
2023-03-03T21:00:22.066Z,0.70
2023-03-03T21:03:02.990Z,0.70
2023-03-03T21:05:39.583Z,0.70
2023-03-03T21:08:18.280Z,0.70
2023-03-03T21:11:02.566Z,0.70
2023-03-03T21:13:41.611Z,0.70
2023-03-03T21:16:36.043Z,0.70
2023-03-03T21:19:29.733Z,0.70
2023-03-03T21:22:18.194Z,0.70
2023-03-03T21:25:01.489Z,0.70
2023-03-03T21:27:50.855Z,0.70
2023-03-03T21:30:30.635Z,0.80
2023-03-03T21:36:03.976Z,0.70
2023-03-03T21:38:40.196Z,0.70
2023-03-03T21:41:24.294Z,0.70
2023-03-03T21:44:01.531Z,0.70
2023-03-03T21:46:38.510Z,0.60
2023-03-03T21:49:15.927Z,0.60
2023-03-03T21:51:53.628Z,0.60
2023-03-03T21:54:31.247Z,0.60
2023-03-03T21:57:12.412Z,0.60
2023-03-03T21:59:49.540Z,0.60
2023-03-03T22:02:29.758Z,0.60
2023-03-03T22:05:08.241Z,0.60
2023-03-03T22:07:42.868Z,0.60
2023-03-03T22:10:20.928Z,0.60
2023-03-03T22:13:04.532Z,0.60
2023-03-03T22:15:40.326Z,0.60
2023-03-03T22:18:22.766Z,0.60
2023-03-03T22:23:39.062Z,0.70
2023-03-03T22:26:17.616Z,0.70
2023-03-03T22:28:53.402Z,0.60
2023-03-03T22:31:34.692Z,0.60
2023-03-03T22:34:15.309Z,0.60
2023-03-03T22:36:54.057Z,0.50
2023-03-03T22:39:30.766Z,0.50
2023-03-03T22:42:11.370Z,0.50
2023-03-03T22:44:48.837Z,0.50
2023-03-03T22:47:29.908Z,0.50
2023-03-03T22:50:10.179Z,0.50
2023-03-03T22:52:49.060Z,0.50
2023-03-03T22:55:29.786Z,0.50
2023-03-03T22:58:10.137Z,0.50
2023-03-03T23:00:46.305Z,0.50
2023-03-03T23:03:26.942Z,0.50
2023-03-03T23:06:04.980Z,0.50
2023-03-03T23:08:43.439Z,0.50
2023-03-03T23:11:22.231Z,0.50
2023-03-03T23:14:00.796Z,0.50
2023-03-03T23:16:37.937Z,0.50
2023-03-03T23:19:22.298Z,0.50
2023-03-03T23:22:00.784Z,0.50
2023-03-03T23:24:39.007Z,0.50
2023-03-03T23:27:16.807Z,0.50
2023-03-03T23:29:55.918Z,0.50
2023-03-03T23:32:33.462Z,0.50
2023-03-03T23:35:19.247Z,0.50
2023-03-03T23:38:18.148Z,0.50
2023-03-03T23:43:53.724Z,0.50
2023-03-03T23:46:31.227Z,0.50
2023-03-03T23:49:13.029Z,0.50
2023-03-03T23:51:52.561Z,0.50
2023-03-03T23:54:30.433Z,0.50
2023-03-03T23:57:09.192Z,0.60
2023-03-03T23:59:46.633Z,0.60
